createdAt,value
2019-05-01T00:00:59.941Z,88.95
2019-05-01T00:01:59.942Z,88.84
2019-05-01T00:02:59.925Z,88.95
2019-05-01T00:03:59.913Z,89.09
2019-05-01T00:04:59.894Z,89.56
2019-05-01T00:05:59.898Z,89.19
2019-05-01T00:06:59.919Z,88.84
2019-05-01T00:07:59.863Z,88.78
2019-05-01T00:08:59.850Z,88.53
2019-05-01T00:09:59.845Z,88.23
2019-05-01T00:10:59.830Z,88.23
2019-05-01T00:11:59.849Z,88.37
2019-05-01T00:12:59.970Z,88.89
2019-05-01T00:13:59.879Z,88.57
2019-05-01T00:14:59.786Z,88.99
2019-05-01T00:15:59.797Z,88.26
2019-05-01T00:16:59.800Z,88.26
2019-05-01T00:17:59.784Z,87.81
2019-05-01T00:18:59.788Z,88.12
2019-05-01T00:19:59.733Z,88.26
2019-05-01T00:20:59.723Z,88.26
2019-05-01T00:21:59.742Z,87.92
2019-05-01T00:22:59.701Z,88.47
2019-05-01T00:23:59.698Z,88.47
2019-05-01T00:24:59.725Z,88.37
2019-05-01T00:25:59.668Z,87.85
2019-05-01T00:26:59.686Z,87.71
2019-05-01T00:27:59.650Z,87.92
2019-05-01T00:28:59.674Z,87.81
2019-05-01T00:29:59.659Z,88.47
2019-05-01T00:30:59.700Z,88.26
2019-05-01T00:31:59.694Z,88.26
2019-05-01T00:32:59.613Z,88.12
2019-05-01T00:33:59.587Z,88.17
2019-05-01T00:34:59.599Z,88.17
2019-05-01T00:35:59.561Z,87.81
2019-05-01T00:36:59.551Z,87.85
2019-05-01T00:37:59.579Z,88.23
2019-05-01T00:38:59.546Z,88.33
2019-05-01T00:39:59.520Z,88.23
2019-05-01T00:40:59.510Z,88.26
2019-05-01T00:41:59.499Z,88.47
2019-05-01T00:42:59.506Z,88.47
2019-05-01T00:43:59.475Z,88.47
2019-05-01T00:44:59.483Z,88.26
2019-05-01T00:45:59.469Z,87.60
2019-05-01T00:46:59.450Z,87.51
2019-05-01T00:47:59.450Z,87.44
2019-05-01T00:48:59.425Z,87.51
2019-05-01T00:49:59.416Z,87.40
2019-05-01T00:50:59.462Z,87.30
2019-05-01T00:51:59.390Z,87.30
2019-05-01T00:52:59.396Z,87.19
2019-05-01T00:53:59.392Z,87.19
2019-05-01T00:54:59.375Z,87.44
2019-05-01T00:55:59.348Z,87.54
2019-05-01T00:56:59.336Z,87.44
2019-05-01T00:57:59.355Z,87.44
2019-05-01T00:58:59.332Z,87.75
2019-05-01T00:59:59.327Z,87.54
2019-05-01T01:00:59.293Z,88.06
2019-05-01T01:01:59.283Z,88.31
2019-05-01T01:02:59.314Z,88.41
2019-05-01T01:03:59.286Z,88.47
2019-05-01T01:04:59.253Z,88.17
2019-05-01T01:05:59.246Z,87.85
2019-05-01T01:06:59.250Z,88.06
2019-05-01T01:07:59.234Z,88.06
2019-05-01T01:08:59.249Z,88.37
2019-05-01T01:09:59.197Z,88.31
2019-05-01T01:10:59.187Z,88.89
2019-05-01T01:11:59.176Z,88.41
2019-05-01T01:12:59.179Z,88.68
2019-05-01T01:13:59.156Z,88.62
2019-05-01T01:14:59.168Z,88.82
2019-05-01T01:15:59.151Z,88.62
2019-05-01T01:16:59.141Z,89.23
2019-05-01T01:17:59.152Z,88.92
2019-05-01T01:18:59.103Z,89.34
2019-05-01T01:19:59.113Z,88.92
2019-05-01T01:20:59.080Z,89.23
2019-05-01T01:21:59.072Z,89.13
2019-05-01T01:22:59.064Z,89.58
2019-05-01T01:23:59.090Z,89.58
2019-05-01T01:24:59.047Z,89.58
2019-05-01T01:25:59.037Z,89.79
2019-05-01T01:26:59.016Z,89.58
2019-05-01T01:27:59.006Z,90.20
2019-05-01T01:28:59.005Z,89.89
2019-05-01T01:29:58.996Z,89.69
2019-05-01T01:30:59.005Z,89.28
2019-05-01T01:31:58.964Z,89.69
2019-05-01T01:32:58.959Z,89.58
2019-05-01T01:33:58.952Z,89.79
2019-05-01T01:34:58.932Z,89.69
2019-05-01T01:35:58.924Z,89.58
2019-05-01T01:36:58.948Z,89.58
2019-05-01T01:37:58.908Z,89.38
2019-05-01T01:38:58.899Z,89.17
2019-05-01T01:39:58.879Z,89.79
2019-05-01T01:40:58.889Z,89.38
2019-05-01T01:41:58.902Z,89.79
2019-05-01T01:42:58.904Z,89.69
2019-05-01T01:43:58.848Z,89.17
2019-05-01T01:44:58.833Z,89.69
2019-05-01T01:45:58.843Z,89.58
2019-05-01T01:46:58.803Z,89.42
2019-05-01T01:47:58.807Z,89.69
2019-05-01T01:48:58.811Z,89.83
2019-05-01T01:49:58.772Z,89.94
2019-05-01T01:50:58.761Z,90.14
2019-05-01T01:51:58.752Z,90.97
2019-05-01T01:52:58.737Z,90.86
2019-05-01T01:53:58.739Z,90.35
2019-05-01T01:54:58.758Z,89.94
2019-05-01T01:55:58.810Z,89.69
2019-05-01T01:56:58.697Z,89.38
2019-05-01T01:57:58.686Z,89.58
2019-05-01T01:58:58.687Z,89.69
2019-05-01T01:59:58.663Z,89.38
2019-05-01T02:01:08.941Z,89.48
2019-05-01T02:01:59.671Z,89.28
2019-05-01T02:02:58.631Z,89.83
2019-05-01T02:03:58.634Z,89.73
2019-05-01T02:04:58.612Z,89.83
2019-05-01T02:05:58.618Z,89.32
2019-05-01T02:06:58.589Z,89.73
2019-05-01T02:07:58.635Z,89.38
2019-05-01T02:08:58.583Z,89.62
2019-05-01T02:09:58.560Z,88.76
2019-05-01T02:10:58.550Z,89.52
2019-05-01T02:11:58.563Z,89.22
2019-05-01T02:12:58.525Z,89.32
2019-05-01T02:13:58.565Z,89.94
2019-05-01T02:14:58.539Z,89.94
2019-05-01T02:15:58.493Z,89.11
2019-05-01T02:16:58.483Z,89.73
2019-05-01T02:17:58.485Z,89.69
2019-05-01T02:18:58.480Z,89.32
2019-05-01T02:19:58.452Z,89.32
2019-05-01T02:20:58.459Z,89.22
2019-05-01T02:21:58.469Z,89.32
2019-05-01T02:22:58.469Z,89.83
2019-05-01T02:23:58.407Z,89.42
2019-05-01T02:24:58.411Z,89.73
2019-05-01T02:25:58.387Z,89.62
2019-05-01T02:26:58.373Z,89.52
2019-05-01T02:27:58.364Z,89.73
2019-05-01T02:28:58.383Z,89.42
2019-05-01T02:29:58.352Z,88.43
2019-05-01T02:30:58.344Z,88.68
2019-05-01T02:31:58.342Z,89.54
2019-05-01T02:32:58.317Z,89.48
2019-05-01T02:33:58.314Z,90.10
2019-05-01T02:34:58.323Z,90.45
2019-05-01T02:35:58.285Z,91.22
2019-05-01T02:36:58.270Z,92.61
2019-05-01T02:37:58.265Z,94.22
2019-05-01T02:38:58.254Z,94.22
2019-05-01T02:39:58.260Z,93.12
2019-05-01T02:40:58.226Z,93.43
2019-05-01T02:41:58.230Z,93.95
2019-05-01T02:42:58.209Z,92.24
2019-05-01T02:43:58.194Z,92.59
2019-05-01T02:44:58.196Z,93.35
2019-05-01T02:45:58.233Z,94.70
2019-05-01T02:46:58.160Z,95.37
2019-05-01T02:47:58.222Z,95.78
2019-05-01T02:48:58.172Z,96.61
2019-05-01T02:49:58.138Z,96.61
2019-05-01T02:50:58.116Z,96.14
2019-05-01T02:51:58.107Z,96.97
2019-05-01T02:52:58.096Z,97.49
2019-05-01T02:53:58.113Z,97.85
2019-05-01T02:54:58.098Z,97.80
2019-05-01T02:55:58.068Z,98.05
2019-05-01T02:56:58.063Z,97.53
2019-05-01T02:57:58.042Z,97.22
2019-05-01T02:58:58.033Z,97.78
2019-05-01T02:59:58.111Z,97.99
2019-05-01T03:00:58.013Z,98.41
2019-05-01T03:01:58.001Z,99.19
2019-05-01T03:02:58.007Z,99.66
2019-05-01T03:03:57.993Z,99.47
2019-05-01T03:04:57.978Z,99.32
2019-05-01T03:05:57.981Z,98.70
2019-05-01T03:06:57.946Z,98.86
2019-05-01T03:07:57.940Z,97.78
2019-05-01T03:08:57.945Z,97.01
2019-05-01T03:09:57.968Z,95.87
2019-05-01T03:10:57.910Z,95.42
2019-05-01T03:11:57.891Z,94.34
2019-05-01T03:12:57.895Z,93.41
2019-05-01T03:13:57.894Z,92.68
2019-05-01T03:14:57.861Z,92.02
2019-05-01T03:15:57.865Z,92.54
2019-05-01T03:16:57.856Z,91.88
2019-05-01T03:17:57.828Z,91.26
2019-05-01T03:18:57.816Z,91.01
2019-05-01T03:19:57.869Z,90.59
2019-05-01T03:20:57.824Z,90.49
2019-05-01T03:21:57.783Z,89.87
2019-05-01T03:22:57.828Z,89.25
2019-05-01T03:23:57.773Z,89.87
2019-05-01T03:24:57.755Z,89.56
2019-05-01T03:25:57.768Z,89.46
2019-05-01T03:26:57.730Z,89.46
2019-05-01T03:27:57.718Z,89.67
2019-05-01T03:28:57.709Z,89.36
2019-05-01T03:29:57.707Z,89.15
2019-05-01T03:30:57.700Z,89.05
2019-05-01T03:32:15.202Z,88.84
2019-05-01T03:32:58.668Z,89.25
2019-05-01T03:33:57.656Z,89.46
2019-05-01T03:34:57.650Z,89.36
2019-05-01T03:35:57.643Z,89.05
2019-05-01T03:36:57.624Z,88.95
2019-05-01T03:37:57.664Z,88.84
2019-05-01T03:38:57.608Z,89.77
2019-05-01T03:39:57.591Z,89.56
2019-05-01T03:40:57.595Z,89.25
2019-05-01T03:41:57.569Z,89.19
2019-05-01T03:42:57.559Z,89.71
2019-05-01T03:43:57.567Z,89.81
2019-05-01T03:44:57.537Z,89.71
2019-05-01T03:45:57.553Z,89.77
2019-05-01T03:46:57.518Z,89.46
2019-05-01T03:47:57.506Z,89.46
2019-05-01T03:48:57.504Z,88.95
2019-05-01T03:49:57.552Z,89.29
2019-05-01T03:50:57.497Z,89.25
2019-05-01T03:51:57.481Z,89.40
2019-05-01T03:52:57.459Z,89.29
2019-05-01T03:53:57.442Z,89.50
2019-05-01T03:54:57.472Z,89.65
2019-05-01T03:55:57.423Z,90.06
2019-05-01T03:56:57.430Z,89.65
2019-05-01T03:57:57.401Z,90.06
2019-05-01T03:58:57.389Z,89.86
2019-05-01T03:59:57.384Z,89.81
2019-05-01T04:00:57.369Z,89.61
2019-05-01T04:01:57.404Z,89.40
2019-05-01T04:02:57.388Z,89.50
2019-05-01T04:03:57.347Z,89.50
2019-05-01T04:04:57.374Z,89.50
2019-05-01T04:05:57.311Z,89.81
2019-05-01T04:06:57.312Z,89.50
2019-05-01T04:07:57.290Z,89.92
2019-05-01T04:08:57.281Z,89.29
2019-05-01T04:09:57.331Z,89.29
2019-05-01T04:10:57.275Z,89.50
2019-05-01T04:11:57.262Z,89.50
2019-05-01T04:12:57.254Z,89.50
2019-05-01T04:13:57.229Z,89.40
2019-05-01T04:14:57.218Z,89.09
2019-05-01T04:15:57.250Z,89.09
2019-05-01T04:16:57.215Z,88.89
2019-05-01T04:17:57.185Z,89.09
2019-05-01T04:18:57.185Z,89.81
2019-05-01T04:19:57.169Z,89.54
2019-05-01T04:20:57.178Z,89.23
2019-05-01T04:21:57.181Z,89.65
2019-05-01T04:22:57.197Z,89.75
2019-05-01T04:23:57.125Z,89.75
2019-05-01T04:24:57.108Z,90.06
2019-05-01T04:25:57.112Z,89.86
2019-05-01T04:26:57.100Z,89.44
2019-05-01T04:27:58.929Z,89.71
2019-05-01T04:28:57.084Z,89.81
2019-05-01T04:29:57.118Z,89.95
2019-05-01T04:30:57.056Z,89.86
2019-05-01T04:31:57.048Z,89.81
2019-05-01T04:32:57.057Z,89.29
2019-05-01T04:33:57.025Z,89.40
2019-05-01T04:34:57.010Z,88.68
2019-05-01T04:35:56.992Z,88.68
2019-05-01T04:36:57.022Z,88.26
2019-05-01T04:37:56.970Z,88.06
2019-05-01T04:38:56.972Z,88.12
2019-05-01T04:39:57.061Z,88.16
2019-05-01T04:40:56.949Z,88.16
2019-05-01T04:41:56.946Z,88.22
2019-05-01T04:42:56.915Z,88.02
2019-05-01T04:43:56.909Z,88.02
2019-05-01T04:44:56.908Z,88.64
2019-05-01T04:45:56.928Z,88.98
2019-05-01T04:46:56.898Z,88.12
2019-05-01T04:47:56.868Z,88.37
2019-05-01T04:48:56.856Z,88.53
2019-05-01T04:49:56.847Z,87.50
2019-05-01T04:50:56.842Z,87.81
2019-05-01T04:51:56.832Z,87.60
2019-05-01T04:52:56.816Z,87.40
2019-05-01T04:53:56.814Z,87.60
2019-05-01T04:54:56.813Z,87.26
2019-05-01T04:55:56.800Z,87.26
2019-05-01T04:56:56.766Z,86.63
2019-05-01T04:57:56.794Z,87.05
2019-05-01T04:58:56.779Z,86.84
2019-05-01T04:59:56.806Z,86.63
2019-05-01T05:00:56.728Z,86.63
2019-05-01T05:01:57.572Z,86.84
2019-05-01T05:03:04.560Z,86.60
2019-05-01T05:03:57.709Z,86.63
2019-05-01T05:04:56.710Z,86.84
2019-05-01T05:05:56.777Z,86.63
2019-05-01T05:06:56.674Z,86.60
2019-05-01T05:07:56.655Z,86.08
2019-05-01T05:08:56.648Z,86.08
2019-05-01T05:09:56.627Z,86.70
2019-05-01T05:10:56.642Z,85.97
2019-05-01T05:11:56.627Z,85.57
2019-05-01T05:12:56.661Z,85.42
2019-05-01T05:13:56.581Z,85.52
2019-05-01T05:14:56.571Z,85.01
2019-05-01T05:15:56.562Z,85.11
2019-05-01T05:16:56.566Z,85.01
2019-05-01T05:17:56.564Z,84.80
2019-05-01T05:18:56.531Z,85.22
2019-05-01T05:19:56.608Z,84.87
2019-05-01T05:20:56.516Z,84.77
2019-05-01T05:21:56.569Z,84.91
2019-05-01T05:22:56.549Z,84.77
2019-05-01T05:23:56.473Z,84.77
2019-05-01T05:24:56.471Z,83.84
2019-05-01T05:25:56.478Z,84.66
2019-05-01T05:26:56.505Z,83.94
2019-05-01T05:27:56.503Z,83.84
2019-05-01T05:28:56.509Z,84.87
2019-05-01T05:29:56.459Z,83.63
2019-05-01T05:30:56.452Z,83.90
2019-05-01T05:31:56.437Z,84.83
2019-05-01T05:32:56.383Z,83.59
2019-05-01T05:33:56.419Z,82.35
2019-05-01T05:34:56.367Z,82.77
2019-05-01T05:35:56.348Z,83.07
2019-05-01T05:36:56.335Z,84.00
2019-05-01T05:37:56.331Z,83.14
2019-05-01T05:38:56.351Z,83.25
2019-05-01T05:39:56.356Z,83.20
2019-05-01T05:40:56.297Z,83.20
2019-05-01T05:41:56.282Z,82.28
2019-05-01T05:42:56.286Z,82.96
2019-05-01T05:43:56.271Z,81.73
2019-05-01T05:44:56.263Z,82.04
2019-05-01T05:45:56.264Z,81.83
2019-05-01T05:46:56.225Z,82.00
2019-05-01T05:47:56.216Z,82.00
2019-05-01T05:48:56.212Z,79.94
2019-05-01T05:49:56.192Z,80.32
2019-05-01T05:50:56.191Z,80.01
2019-05-01T05:51:56.186Z,78.88
2019-05-01T05:52:56.172Z,79.60
2019-05-01T05:53:56.160Z,79.25
2019-05-01T05:54:56.140Z,78.06
2019-05-01T05:55:56.143Z,78.67
2019-05-01T05:56:56.129Z,78.78
2019-05-01T05:57:56.122Z,78.53
2019-05-01T05:58:56.120Z,77.33
2019-05-01T05:59:56.097Z,76.61
2019-05-01T06:00:56.087Z,72.55
2019-05-01T06:01:56.064Z,72.48
2019-05-01T06:02:56.052Z,70.98
2019-05-01T06:03:56.062Z,70.23
2019-05-01T06:04:56.034Z,69.73
2019-05-01T06:05:56.028Z,69.79
2019-05-01T06:06:56.021Z,66.97
2019-05-01T06:07:56.008Z,66.30
2019-05-01T06:08:55.990Z,64.72
2019-05-01T06:09:55.990Z,63.49
2019-05-01T06:10:58.679Z,64.87
2019-05-01T06:11:55.956Z,65.08
2019-05-01T06:12:55.947Z,64.54
2019-05-01T06:13:57.072Z,64.47
2019-05-01T06:14:55.937Z,65.28
2019-05-01T06:15:55.914Z,66.20
2019-05-01T06:16:55.899Z,65.83
2019-05-01T06:17:59.211Z,65.28
2019-05-01T06:18:56.883Z,65.56
2019-05-01T06:19:55.901Z,64.41
2019-05-01T06:20:57.090Z,64.58
2019-05-01T06:21:56.860Z,64.78
2019-05-01T06:22:55.891Z,66.70
2019-05-01T06:23:57.823Z,68.64
2019-05-01T06:24:56.827Z,68.07
2019-05-01T06:25:59.948Z,67.59
2019-05-01T06:26:56.813Z,66.77
2019-05-01T06:27:55.781Z,66.13
2019-05-01T06:29:00.211Z,66.00
2019-05-01T06:29:55.767Z,66.10
2019-05-01T06:30:55.766Z,68.44
2019-05-01T06:31:58.800Z,65.00
2019-05-01T06:32:55.743Z,61.66
2019-05-01T06:33:55.739Z,61.60
2019-05-01T06:34:58.554Z,60.16
2019-05-01T06:35:56.700Z,58.72
2019-05-01T06:36:55.708Z,58.69
2019-05-01T06:37:55.887Z,59.14
2019-05-01T06:38:55.678Z,56.15
2019-05-01T06:39:55.661Z,56.13
2019-05-01T06:40:58.053Z,59.91
2019-05-01T06:41:55.627Z,58.54
2019-05-01T06:42:55.618Z,58.07
2019-05-01T06:43:57.160Z,56.36
2019-05-01T06:44:56.647Z,57.29
2019-05-01T06:45:55.584Z,56.96
2019-05-01T06:46:58.252Z,54.91
2019-05-01T06:47:56.681Z,53.96
2019-05-01T06:48:55.579Z,54.25
2019-05-01T06:49:55.563Z,54.58
2019-05-01T06:50:55.547Z,53.05
2019-05-01T06:51:55.520Z,52.87
2019-05-01T06:52:55.512Z,54.66
2019-05-01T06:53:55.543Z,55.14
2019-05-01T06:54:55.571Z,53.09
2019-05-01T06:55:55.474Z,53.70
2019-05-01T06:56:55.465Z,54.25
2019-05-01T06:57:55.472Z,51.79
2019-05-01T06:58:56.405Z,51.89
2019-05-01T06:59:55.438Z,51.11
2019-05-01T07:00:55.448Z,52.47
2019-05-01T07:01:58.346Z,50.93
2019-05-01T07:02:55.483Z,52.44
2019-05-01T07:04:03.502Z,53.05
2019-05-01T07:04:56.389Z,52.82
2019-05-01T07:05:56.294Z,54.43
2019-05-01T07:06:55.353Z,54.10
2019-05-01T07:07:55.343Z,52.97
2019-05-01T07:08:55.331Z,53.12
2019-05-01T07:09:55.339Z,52.84
2019-05-01T07:10:55.342Z,53.14
2019-05-01T07:11:55.334Z,53.52
2019-05-01T07:12:55.292Z,52.22
2019-05-01T07:13:55.885Z,51.41
2019-05-01T07:14:55.267Z,51.73
2019-05-01T07:15:58.773Z,52.82
2019-05-01T07:16:56.244Z,54.21
2019-05-01T07:17:55.272Z,55.04
2019-05-01T07:18:58.022Z,56.63
2019-05-01T07:19:56.233Z,55.21
2019-05-01T07:20:55.232Z,57.28
2019-05-01T07:21:55.192Z,57.81
2019-05-01T07:22:55.182Z,52.92
2019-05-01T07:23:55.255Z,54.71
2019-05-01T07:24:58.919Z,56.90
2019-05-01T07:25:56.166Z,56.43
2019-05-01T07:26:55.150Z,55.62
2019-05-01T07:27:58.486Z,55.01
2019-05-01T07:28:55.167Z,56.93
2019-05-01T07:29:55.108Z,56.90
2019-05-01T07:30:56.089Z,55.24
2019-05-01T07:31:55.084Z,54.99
2019-05-01T07:32:55.079Z,57.12
2019-05-01T07:33:55.093Z,56.06
2019-05-01T07:34:56.958Z,52.14
2019-05-01T07:35:56.056Z,56.48
2019-05-01T07:36:55.025Z,51.24
2019-05-01T07:37:57.657Z,49.11
2019-05-01T07:38:55.017Z,50.99
2019-05-01T07:39:55.027Z,50.74
2019-05-01T07:40:58.753Z,50.76
2019-05-01T07:41:55.980Z,50.56
2019-05-01T07:42:54.961Z,51.87
2019-05-01T07:43:59.209Z,51.82
2019-05-01T07:44:54.959Z,51.87
2019-05-01T07:45:54.927Z,50.59
2019-05-01T07:46:56.148Z,48.67
2019-05-01T07:47:54.906Z,48.44
2019-05-01T07:48:54.897Z,47.84
2019-05-01T07:49:55.005Z,51.46
2019-05-01T07:50:54.923Z,51.02
2019-05-01T07:51:54.872Z,50.09
2019-05-01T07:52:54.847Z,48.67
2019-05-01T07:53:59.045Z,48.72
2019-05-01T07:54:55.827Z,50.69
2019-05-01T07:55:54.820Z,50.39
2019-05-01T07:56:58.737Z,47.63
2019-05-01T07:57:55.807Z,52.04
2019-05-01T07:58:54.790Z,51.97
2019-05-01T07:59:58.242Z,50.26
2019-05-01T08:00:55.762Z,50.61
2019-05-01T08:01:55.711Z,51.76
2019-05-01T08:02:54.768Z,50.48
2019-05-01T08:03:54.750Z,52.62
2019-05-01T08:04:54.729Z,52.29
2019-05-01T08:05:54.750Z,54.32
2019-05-01T08:06:57.060Z,50.26
2019-05-01T08:07:54.728Z,52.74
2019-05-01T08:08:54.704Z,48.16
2019-05-01T08:09:54.683Z,52.55
2019-05-01T08:10:54.654Z,50.79
2019-05-01T08:11:54.654Z,52.72
2019-05-01T08:12:55.570Z,52.22
2019-05-01T08:14:07.070Z,52.47
2019-05-01T08:14:55.633Z,52.62
2019-05-01T08:15:54.633Z,53.77
2019-05-01T08:16:54.607Z,50.42
2019-05-01T08:17:54.578Z,53.39
2019-05-01T08:18:54.570Z,48.72
2019-05-01T08:19:54.595Z,50.02
2019-05-01T08:20:54.542Z,49.32
2019-05-01T08:21:57.056Z,50.27
2019-05-01T08:22:55.578Z,52.42
2019-05-01T08:23:54.557Z,49.40
2019-05-01T08:24:58.812Z,48.80
2019-05-01T08:25:55.546Z,48.88
2019-05-01T08:26:54.514Z,49.90
2019-05-01T08:27:56.192Z,51.42
2019-05-01T08:28:54.454Z,47.57
2019-05-01T08:29:54.444Z,51.02
2019-05-01T08:30:54.437Z,51.05
2019-05-01T08:31:54.432Z,47.63
2019-05-01T08:32:54.421Z,54.41
2019-05-01T08:33:54.416Z,51.29
2019-05-01T08:34:55.731Z,51.42
2019-05-01T08:35:55.381Z,50.13
2019-05-01T08:36:54.425Z,46.64
2019-05-01T08:37:58.434Z,48.73
2019-05-01T08:38:55.350Z,45.54
2019-05-01T08:39:54.367Z,48.25
2019-05-01T08:40:55.422Z,47.88
2019-05-01T08:41:54.332Z,46.76
2019-05-01T08:42:54.303Z,48.58
2019-05-01T08:43:55.896Z,48.55
2019-05-01T08:44:54.283Z,49.53
2019-05-01T08:45:54.291Z,49.18
2019-05-01T08:46:54.282Z,51.97
2019-05-01T08:47:56.750Z,49.01
2019-05-01T08:48:55.239Z,48.18
2019-05-01T08:49:54.231Z,49.75
2019-05-01T08:50:54.613Z,47.21
2019-05-01T08:51:54.253Z,50.30
2019-05-01T08:52:54.218Z,48.49
2019-05-01T08:53:57.850Z,47.37
2019-05-01T08:54:55.175Z,48.46
2019-05-01T08:55:54.159Z,50.97
2019-05-01T08:56:58.228Z,46.33
2019-05-01T08:57:55.166Z,48.49
2019-05-01T08:58:54.126Z,56.77
2019-05-01T08:59:55.810Z,54.82
2019-05-01T09:00:55.104Z,54.29
2019-05-01T09:02:08.562Z,52.17
2019-05-01T09:03:07.367Z,49.43
2019-05-01T09:03:55.697Z,50.70
2019-05-01T09:05:02.078Z,47.79
2019-05-01T09:05:57.523Z,50.18
2019-05-01T09:06:54.041Z,49.10
2019-05-01T09:07:55.923Z,50.08
2019-05-01T09:08:54.020Z,50.95
2019-05-01T09:09:54.076Z,48.55
2019-05-01T09:10:54.691Z,51.54
2019-05-01T09:11:54.985Z,49.25
2019-05-01T09:12:54.003Z,48.23
2019-05-01T09:13:54.669Z,50.00
2019-05-01T09:14:53.951Z,50.90
2019-05-01T09:15:53.948Z,46.61
2019-05-01T09:16:53.955Z,51.57
2019-05-01T09:17:53.931Z,52.44
2019-05-01T09:18:53.914Z,50.85
2019-05-01T09:19:53.902Z,53.47
2019-05-01T09:20:53.891Z,54.21
2019-05-01T09:21:53.879Z,50.98
2019-05-01T09:22:53.917Z,49.85
2019-05-01T09:23:53.862Z,51.05
2019-05-01T09:24:53.845Z,51.37
2019-05-01T09:25:53.836Z,46.20
2019-05-01T09:26:53.828Z,46.87
2019-05-01T09:27:53.825Z,49.48
2019-05-01T09:28:53.832Z,50.45
2019-05-01T09:29:53.807Z,48.50
2019-05-01T09:31:01.555Z,53.89
2019-05-01T09:31:54.769Z,53.19
2019-05-01T09:32:55.254Z,48.50
2019-05-01T09:33:53.763Z,49.10
2019-05-01T09:34:53.797Z,48.71
2019-05-01T09:35:53.730Z,52.76
2019-05-01T09:36:53.721Z,50.27
2019-05-01T09:37:53.734Z,49.10
2019-05-01T09:38:53.696Z,51.40
2019-05-01T09:39:53.684Z,50.87
2019-05-01T09:40:53.730Z,46.57
2019-05-01T09:41:53.698Z,48.79
2019-05-01T09:42:54.600Z,47.66
2019-05-01T09:43:54.645Z,50.45
2019-05-01T09:44:53.630Z,47.25
2019-05-01T09:45:53.650Z,45.65
2019-05-01T09:46:53.676Z,48.10
2019-05-01T09:47:53.629Z,50.58
2019-05-01T09:48:53.618Z,48.19
2019-05-01T09:49:55.626Z,51.35
2019-05-01T09:50:53.568Z,44.20
2019-05-01T09:51:53.558Z,52.42
2019-05-01T09:52:55.117Z,49.61
2019-05-01T09:53:54.547Z,46.45
2019-05-01T09:54:53.541Z,48.64
2019-05-01T09:55:53.582Z,45.90
2019-05-01T09:56:53.506Z,49.60
2019-05-01T09:57:53.495Z,46.51
2019-05-01T09:58:53.494Z,50.78
2019-05-01T09:59:53.525Z,48.26
2019-05-01T10:00:53.976Z,45.14
2019-05-01T10:01:53.454Z,50.01
2019-05-01T10:02:54.764Z,46.03
2019-05-01T10:03:54.512Z,49.11
2019-05-01T10:04:53.420Z,48.19
2019-05-01T10:05:53.445Z,47.10
2019-05-01T10:06:54.139Z,43.82
2019-05-01T10:07:53.386Z,43.60
2019-05-01T10:08:53.389Z,40.44
2019-05-01T10:09:53.999Z,39.69
2019-05-01T10:10:53.359Z,41.60
2019-05-01T10:11:53.353Z,43.46
2019-05-01T10:12:53.401Z,41.85
2019-05-01T10:13:53.770Z,43.29
2019-05-01T10:14:53.338Z,43.76
2019-05-01T10:15:53.309Z,48.91
2019-05-01T10:16:53.300Z,48.41
2019-05-01T10:17:53.283Z,46.68
2019-05-01T10:18:53.305Z,42.63
2019-05-01T10:19:53.291Z,40.98
2019-05-01T10:20:53.255Z,43.96
2019-05-01T10:21:53.244Z,48.34
2019-05-01T10:22:53.291Z,41.87
2019-05-01T10:23:53.350Z,43.51
2019-05-01T10:24:53.214Z,48.34
2019-05-01T10:25:53.199Z,43.44
2019-05-01T10:26:55.235Z,42.51
2019-05-01T10:27:54.178Z,44.37
2019-05-01T10:28:53.322Z,40.30
2019-05-01T10:29:57.010Z,42.51
2019-05-01T10:30:54.167Z,38.28
2019-05-01T10:31:53.139Z,43.02
2019-05-01T10:32:57.870Z,43.70
2019-05-01T10:33:54.127Z,42.93
2019-05-01T10:34:53.111Z,42.41
2019-05-01T10:35:53.105Z,41.14
2019-05-01T10:36:54.536Z,40.33
2019-05-01T10:37:53.076Z,39.53
2019-05-01T10:38:53.076Z,43.88
2019-05-01T10:39:54.119Z,39.43
2019-05-01T10:40:53.065Z,39.61
2019-05-01T10:41:53.039Z,40.89
2019-05-01T10:42:53.025Z,46.48
2019-05-01T10:43:53.032Z,40.76
2019-05-01T10:44:53.015Z,47.03
2019-05-01T10:45:52.993Z,43.97
2019-05-01T10:46:53.036Z,40.86
2019-05-01T10:47:52.980Z,44.32
2019-05-01T10:48:52.985Z,46.57
2019-05-01T10:49:52.954Z,42.23
2019-05-01T10:50:52.944Z,41.82
2019-05-01T10:51:52.934Z,43.01
2019-05-01T10:52:52.967Z,47.58
2019-05-01T10:53:52.930Z,47.71
2019-05-01T10:54:52.927Z,44.60
2019-05-01T10:55:52.900Z,41.52
2019-05-01T10:56:52.886Z,45.40
2019-05-01T10:57:52.874Z,43.11
2019-05-01T10:58:52.926Z,44.20
2019-05-01T10:59:52.869Z,42.65
2019-05-01T11:00:52.846Z,44.27
2019-05-01T11:01:52.831Z,44.50
2019-05-01T11:02:52.826Z,44.80
2019-05-01T11:03:52.811Z,45.20
2019-05-01T11:04:52.836Z,41.91
2019-05-01T11:05:56.225Z,42.11
2019-05-01T11:06:52.780Z,45.79
2019-05-01T11:07:52.771Z,42.19
2019-05-01T11:08:52.767Z,46.57
2019-05-01T11:09:52.758Z,42.91
2019-05-01T11:10:52.796Z,41.39
2019-05-01T11:11:52.729Z,45.33
2019-05-01T11:12:52.719Z,44.69
2019-05-01T11:13:52.737Z,49.23
2019-05-01T11:14:52.718Z,44.31
2019-05-01T11:15:52.689Z,47.37
2019-05-01T11:16:52.780Z,42.77
2019-05-01T11:17:52.721Z,43.07
2019-05-01T11:18:52.761Z,46.47
2019-05-01T11:19:52.662Z,39.46
2019-05-01T11:20:52.641Z,42.61
2019-05-01T11:21:52.630Z,43.83
2019-05-01T11:22:52.622Z,46.73
2019-05-01T11:23:52.615Z,48.65
2019-05-01T11:24:52.642Z,43.57
2019-05-01T11:25:52.630Z,42.97
2019-05-01T11:26:52.589Z,46.84
2019-05-01T11:27:52.572Z,45.02
2019-05-01T11:28:52.561Z,43.03
2019-05-01T11:29:52.594Z,42.13
2019-05-01T11:30:52.606Z,45.40
2019-05-01T11:31:52.536Z,47.41
2019-05-01T11:32:52.525Z,42.83
2019-05-01T11:33:52.526Z,45.18
2019-05-01T11:34:52.543Z,46.05
2019-05-01T11:35:52.527Z,41.25
2019-05-01T11:36:52.480Z,43.16
2019-05-01T11:37:52.472Z,48.74
2019-05-01T11:38:52.461Z,42.99
2019-05-01T11:39:52.463Z,43.29
2019-05-01T11:40:52.451Z,45.57
2019-05-01T11:41:52.447Z,41.60
2019-05-01T11:42:52.421Z,41.87
2019-05-01T11:43:52.414Z,43.66
2019-05-01T11:44:52.454Z,39.62
2019-05-01T11:45:52.403Z,44.80
2019-05-01T11:46:52.393Z,41.24
2019-05-01T11:47:52.397Z,42.23
2019-05-01T11:48:52.362Z,39.96
2019-05-01T11:49:52.352Z,42.03
2019-05-01T11:50:52.359Z,45.98
2019-05-01T11:51:52.333Z,47.14
2019-05-01T11:52:52.321Z,44.50
2019-05-01T11:53:52.344Z,41.58
2019-05-01T11:54:52.308Z,48.61
2019-05-01T11:55:52.301Z,42.63
2019-05-01T11:56:52.287Z,42.33
2019-05-01T11:57:52.271Z,42.03
2019-05-01T11:58:52.260Z,44.84
2019-05-01T11:59:52.328Z,45.68
2019-05-01T12:00:52.251Z,40.60
2019-05-01T12:01:52.234Z,48.22
2019-05-01T12:02:52.222Z,48.08
2019-05-01T12:03:52.211Z,44.60
2019-05-01T12:04:52.202Z,50.04
2019-05-01T12:05:52.234Z,41.69
2019-05-01T12:06:52.184Z,40.50
2019-05-01T12:07:52.175Z,37.04
2019-05-01T12:08:52.167Z,38.17
2019-05-01T12:09:52.157Z,39.59
2019-05-01T12:10:52.157Z,42.45
2019-05-01T12:11:52.185Z,40.26
2019-05-01T12:12:52.127Z,40.19
2019-05-01T12:13:52.133Z,41.67
2019-05-01T12:14:52.110Z,39.61
2019-05-01T12:15:52.124Z,42.71
2019-05-01T12:16:52.104Z,45.17
2019-05-01T12:17:52.108Z,47.41
2019-05-01T12:18:52.072Z,41.83
2019-05-01T12:19:52.085Z,38.56
2019-05-01T12:20:52.055Z,40.88
2019-05-01T12:21:52.059Z,39.21
2019-05-01T12:22:52.038Z,39.37
2019-05-01T12:23:52.051Z,42.45
2019-05-01T12:24:52.018Z,39.27
2019-05-01T12:25:52.010Z,41.25
2019-05-01T12:26:52.010Z,42.91
2019-05-01T12:27:51.992Z,40.64
2019-05-01T12:28:52.002Z,45.47
2019-05-01T12:29:52.040Z,37.56
2019-05-01T12:30:51.963Z,38.91
2019-05-01T12:31:51.973Z,43.07
2019-05-01T12:32:51.944Z,40.84
2019-05-01T12:33:51.935Z,38.54
2019-05-01T12:34:51.924Z,42.99
2019-05-01T12:35:51.927Z,44.07
2019-05-01T12:36:51.956Z,38.24
2019-05-01T12:37:51.895Z,38.26
2019-05-01T12:38:51.881Z,38.29
2019-05-01T12:39:51.883Z,40.24
2019-05-01T12:40:51.862Z,42.21
2019-05-01T12:41:51.873Z,41.20
2019-05-01T12:42:51.872Z,38.53
2019-05-01T12:43:51.840Z,44.58
2019-05-01T12:44:51.822Z,44.42
2019-05-01T12:45:51.814Z,39.81
2019-05-01T12:46:51.829Z,37.72
2019-05-01T12:47:51.794Z,41.00
2019-05-01T12:48:51.784Z,42.41
2019-05-01T12:49:51.821Z,39.86
2019-05-01T12:50:51.766Z,37.32
2019-05-01T12:51:51.777Z,40.22
2019-05-01T12:52:51.756Z,39.58